Blanchester, Ohio
Current Conditions -  °F | °C
As of 12:54 AM on Wednesday 28 Jan 2015 (Local Time) from KILN Reporting Station
Haze Haze  
Wind Chill:   Ceiling: Unl
Heat Index:   Visibility: 4mi
Dew Point:   Wind: 3mph
Humidity: 88%   Direction: 230°SW
Pressure: 30.22"   Gusts: NA
Location:  39.29°N, 83.99°W
Report Text: KILN 280554Z AUTO 23003KT 4SM BR CLR M13/M14 A3022 RMK AO2 SLP274 I1001 I6001 T11281144 11072 21128 51003
Loading
Personal Weather Stations






























Interactive Weather Map New forecast layout! Learn more

10-Day Weather Forecast

Advertisements
Track Severe Weather on mobile